createdAt,value
2018-09-05T00:01:53.421Z,18.67
2018-09-05T00:04:21.473Z,17.80
2018-09-05T00:06:49.628Z,18.13
2018-09-05T00:09:17.688Z,18.10
2018-09-05T00:11:45.777Z,18.80
2018-09-05T00:14:13.855Z,18.37
2018-09-05T00:16:42.214Z,17.07
2018-09-05T00:19:10.413Z,17.57
2018-09-05T00:21:38.477Z,18.70
2018-09-05T00:24:06.552Z,17.93
2018-09-05T00:26:34.713Z,19.27
2018-09-05T00:29:02.768Z,17.43
2018-09-05T00:31:30.945Z,17.67
2018-09-05T00:33:59.009Z,17.47
2018-09-05T00:36:27.082Z,17.50
2018-09-05T00:38:55.136Z,16.50
2018-09-05T00:41:23.225Z,18.50
2018-09-05T00:43:51.308Z,18.63
2018-09-05T00:46:19.376Z,17.80
2018-09-05T00:48:47.468Z,18.67
2018-09-05T00:51:15.891Z,17.93
2018-09-05T00:53:44.007Z,18.00
2018-09-05T00:56:12.074Z,17.47
2018-09-05T00:58:40.149Z,18.83
2018-09-05T01:01:08.202Z,17.50
2018-09-05T01:03:36.313Z,17.30
2018-09-05T01:06:04.380Z,17.60
2018-09-05T01:08:32.440Z,17.70
2018-09-05T01:11:00.508Z,18.20
2018-09-05T01:13:28.572Z,17.63
2018-09-05T01:15:56.627Z,18.50
2018-09-05T01:18:24.705Z,18.80
2018-09-05T01:20:52.849Z,19.10
2018-09-05T01:23:20.901Z,17.57
2018-09-05T01:25:49.281Z,19.13
2018-09-05T01:28:17.372Z,18.30
2018-09-05T01:30:45.481Z,19.17
2018-09-05T01:33:13.684Z,19.03
2018-09-05T01:35:41.818Z,17.03
2018-09-05T01:38:09.953Z,17.20
2018-09-05T01:40:38.025Z,17.70
2018-09-05T01:43:06.189Z,18.27
2018-09-05T01:45:34.279Z,16.90
2018-09-05T01:48:02.541Z,17.40
2018-09-05T01:50:36.001Z,17.80
2018-09-05T01:53:04.324Z,17.30
2018-09-05T01:55:32.397Z,18.30
2018-09-05T01:58:00.473Z,16.80
2018-09-05T02:00:32.917Z,16.60
2018-09-05T02:03:01.323Z,18.53
2018-09-05T02:05:29.668Z,16.50
2018-09-05T02:07:58.145Z,17.83
2018-09-05T02:10:26.216Z,18.30
2018-09-05T02:12:54.276Z,18.33
2018-09-05T02:15:22.357Z,17.13
2018-09-05T02:17:50.465Z,17.03
2018-09-05T02:20:18.573Z,18.53
2018-09-05T02:22:46.636Z,18.83
2018-09-05T02:25:15.036Z,18.20
2018-09-05T02:27:43.148Z,20.00
2018-09-05T02:30:11.252Z,19.07
2018-09-05T02:32:39.345Z,18.63
2018-09-05T02:35:07.664Z,17.53
2018-09-05T02:37:35.761Z,17.17
2018-09-05T02:40:03.962Z,17.60
2018-09-05T02:42:32.023Z,17.30
2018-09-05T02:45:00.268Z,18.90
2018-09-05T02:47:28.736Z,18.83
2018-09-05T02:49:57.010Z,19.10
2018-09-05T02:52:25.139Z,18.80
2018-09-05T02:54:53.212Z,17.50
2018-09-05T02:57:21.382Z,19.60
2018-09-05T02:59:49.441Z,19.87
2018-09-05T03:02:17.538Z,19.03
2018-09-05T03:04:45.633Z,19.97
2018-09-05T03:07:13.769Z,19.40
2018-09-05T03:09:41.932Z,19.63
2018-09-05T03:12:10.025Z,18.03
2018-09-05T03:14:38.109Z,17.40
2018-09-05T03:17:06.290Z,15.97
2018-09-05T03:19:34.360Z,18.27
2018-09-05T03:22:02.416Z,18.17
2018-09-05T03:24:30.532Z,18.77
2018-09-05T03:26:58.832Z,21.53
2018-09-05T03:29:27.299Z,20.37
2018-09-05T03:31:55.433Z,21.20
2018-09-05T03:34:23.609Z,22.10
2018-09-05T03:36:52.034Z,23.20
2018-09-05T03:39:20.158Z,20.07
2018-09-05T03:41:48.237Z,22.13
2018-09-05T03:44:16.304Z,20.60
2018-09-05T03:46:44.376Z,19.80
2018-09-05T03:49:12.561Z,18.97
2018-09-05T03:51:40.628Z,19.67
2018-09-05T03:54:08.808Z,19.80
2018-09-05T03:56:36.896Z,17.13
2018-09-05T03:59:04.963Z,18.60
2018-09-05T04:01:33.634Z,18.67
2018-09-05T04:04:01.880Z,19.40
2018-09-05T04:06:29.954Z,19.40
2018-09-05T04:08:58.002Z,20.40
2018-09-05T04:11:26.063Z,20.73
2018-09-05T04:13:54.205Z,20.20
2018-09-05T04:16:22.277Z,20.83
2018-09-05T04:18:50.364Z,18.63
2018-09-05T04:21:18.404Z,20.10
2018-09-05T04:23:47.789Z,19.80
2018-09-05T04:26:17.025Z,19.10
2018-09-05T04:28:45.192Z,20.00
2018-09-05T04:31:14.581Z,19.53
2018-09-05T04:33:43.284Z,20.87
2018-09-05T04:36:13.169Z,18.30
2018-09-05T04:38:42.377Z,20.33
2018-09-05T04:41:10.744Z,21.53
2018-09-05T04:43:38.877Z,20.07
2018-09-05T04:46:07.068Z,18.40
2018-09-05T04:48:35.136Z,20.60
2018-09-05T04:51:03.297Z,19.73
2018-09-05T04:53:31.453Z,21.37
2018-09-05T04:55:59.530Z,20.70
2018-09-05T04:58:27.682Z,21.30
2018-09-05T05:00:55.917Z,21.30
2018-09-05T05:03:24.144Z,22.60
2018-09-05T05:05:52.281Z,23.07
2018-09-05T05:08:20.489Z,20.73
2018-09-05T05:10:48.652Z,20.30
2018-09-05T05:13:16.933Z,20.87
2018-09-05T05:15:45.007Z,19.80
2018-09-05T05:18:13.184Z,19.97
2018-09-05T05:20:41.241Z,21.50
2018-09-05T05:23:09.321Z,20.87
2018-09-05T05:25:37.447Z,21.77
2018-09-05T05:28:05.722Z,22.13
2018-09-05T05:30:33.887Z,21.10
2018-09-05T05:33:02.152Z,20.43
2018-09-05T05:35:30.269Z,19.03
2018-09-05T05:37:58.384Z,19.40
2018-09-05T05:40:26.449Z,18.83
2018-09-05T05:42:54.661Z,21.30
2018-09-05T05:45:22.719Z,21.03
2018-09-05T05:47:50.810Z,23.23
2018-09-05T05:50:18.997Z,20.50
2018-09-05T05:52:47.069Z,19.83
2018-09-05T05:55:16.825Z,21.20
2018-09-05T05:57:45.926Z,20.77
2018-09-05T06:00:14.682Z,21.40
2018-09-05T06:02:43.830Z,20.83
2018-09-05T06:05:12.970Z,19.77
2018-09-05T06:07:42.263Z,21.10
2018-09-05T06:10:11.270Z,24.00
2018-09-05T06:12:39.420Z,22.50
2018-09-05T06:15:07.466Z,23.50
2018-09-05T06:17:35.573Z,21.17
2018-09-05T06:20:03.942Z,20.37
2018-09-05T06:22:31.985Z,21.10
2018-09-05T06:25:00.044Z,22.63
2018-09-05T06:27:28.245Z,24.13
2018-09-05T06:29:56.660Z,24.13
2018-09-05T06:32:24.841Z,25.13
2018-09-05T06:34:52.928Z,26.00
2018-09-05T06:37:21.185Z,32.00
2018-09-05T06:39:49.271Z,36.60
2018-09-05T06:42:17.328Z,31.40
2018-09-05T06:44:45.407Z,29.80
2018-09-05T06:47:13.480Z,29.00
2018-09-05T06:49:41.682Z,27.83
2018-09-05T06:52:09.927Z,26.23
2018-09-05T06:54:38.012Z,24.87
2018-09-05T06:57:06.100Z,26.53
2018-09-05T06:59:34.141Z,26.17
2018-09-05T07:02:02.387Z,27.00
2018-09-05T07:04:30.471Z,26.37
2018-09-05T07:06:58.596Z,25.70
2018-09-05T07:09:26.950Z,25.97
2018-09-05T07:11:55.085Z,27.20
2018-09-05T07:14:23.178Z,26.40
2018-09-05T07:16:51.474Z,25.20
2018-09-05T07:19:19.902Z,26.10
2018-09-05T07:21:48.121Z,27.27
2018-09-05T07:24:16.403Z,26.50
2018-09-05T07:26:44.462Z,24.30
2018-09-05T07:29:12.553Z,26.73
2018-09-05T07:31:40.626Z,27.30
2018-09-05T07:34:08.838Z,24.60
2018-09-05T07:36:36.987Z,24.93
2018-09-05T07:39:07.223Z,24.60
2018-09-05T07:41:35.293Z,25.20
2018-09-05T07:44:03.911Z,24.50
2018-09-05T07:46:31.979Z,22.77
2018-09-05T07:49:00.108Z,27.80
2018-09-05T07:51:28.241Z,25.60
2018-09-05T07:53:56.337Z,26.43
2018-09-05T07:56:24.432Z,27.27
2018-09-05T07:58:52.836Z,29.13
2018-09-05T08:01:20.932Z,29.40
2018-09-05T08:03:48.986Z,28.90
2018-09-05T08:06:17.158Z,27.90
2018-09-05T08:08:45.558Z,27.00
2018-09-05T08:11:13.705Z,27.50
2018-09-05T08:13:41.813Z,26.33
2018-09-05T08:16:09.890Z,28.17
2018-09-05T08:18:37.964Z,28.90
2018-09-05T08:21:06.046Z,28.27
2018-09-05T08:23:34.160Z,29.60
2018-09-05T08:26:02.372Z,26.60
2018-09-05T08:28:30.417Z,29.07
2018-09-05T08:30:58.511Z,30.17
2018-09-05T08:33:26.666Z,30.60
2018-09-05T08:35:55.124Z,32.70
2018-09-05T08:38:23.172Z,31.30
2018-09-05T08:40:51.557Z,29.73
2018-09-05T08:43:19.848Z,27.83
2018-09-05T08:45:48.402Z,27.93
2018-09-05T08:48:16.495Z,28.17
2018-09-05T08:50:44.706Z,30.07
2018-09-05T08:53:12.794Z,30.67
2018-09-05T08:55:41.129Z,27.93
2018-09-05T08:58:09.222Z,28.27
2018-09-05T09:00:37.299Z,26.90
2018-09-05T09:03:05.393Z,27.00
2018-09-05T09:05:33.676Z,27.23
2018-09-05T09:08:01.786Z,25.33
2018-09-05T09:10:29.861Z,25.47
2018-09-05T09:12:58.000Z,25.93
2018-09-05T09:15:26.169Z,25.90
2018-09-05T09:17:54.280Z,25.97
2018-09-05T09:20:22.372Z,24.63
2018-09-05T09:22:50.525Z,25.37
2018-09-05T09:25:18.594Z,26.23
2018-09-05T09:27:46.682Z,23.23
2018-09-05T09:30:14.757Z,23.07
2018-09-05T09:32:42.852Z,21.10
2018-09-05T09:35:10.957Z,23.70
2018-09-05T09:37:39.105Z,21.97
2018-09-05T09:40:07.193Z,21.30
2018-09-05T09:42:35.261Z,22.33
2018-09-05T09:45:03.456Z,22.70
2018-09-05T09:47:31.789Z,23.10
2018-09-05T09:49:59.869Z,21.50
2018-09-05T09:52:27.943Z,21.50
2018-09-05T09:54:56.032Z,21.73
2018-09-05T09:57:24.141Z,20.47
2018-09-05T09:59:52.244Z,20.40
2018-09-05T10:02:25.879Z,23.40
2018-09-05T10:04:59.605Z,20.50
2018-09-05T10:07:33.159Z,20.90
2018-09-05T10:10:06.901Z,19.17
2018-09-05T10:12:40.238Z,20.87
2018-09-05T10:15:12.266Z,19.73
2018-09-05T10:17:40.545Z,20.67
2018-09-05T10:20:08.940Z,19.60
2018-09-05T10:22:37.031Z,20.30
2018-09-05T10:25:05.384Z,19.37
2018-09-05T10:27:33.459Z,19.77
2018-09-05T10:30:01.626Z,19.60
2018-09-05T10:32:29.797Z,19.83
2018-09-05T10:34:58.033Z,20.67
2018-09-05T10:37:26.145Z,23.40
2018-09-05T10:39:54.214Z,20.90
2018-09-05T10:42:22.393Z,20.40
2018-09-05T10:44:50.481Z,20.63
2018-09-05T10:47:18.576Z,22.27
2018-09-05T10:49:46.684Z,20.47
2018-09-05T10:52:14.763Z,20.67
2018-09-05T10:54:42.911Z,20.73
2018-09-05T10:57:11.142Z,19.00
2018-09-05T10:59:39.213Z,19.47
2018-09-05T11:02:07.650Z,20.43
2018-09-05T11:04:35.767Z,19.60
2018-09-05T11:07:04.170Z,18.43
2018-09-05T11:09:32.246Z,20.77
2018-09-05T11:12:00.398Z,20.60
2018-09-05T11:14:28.472Z,20.80
2018-09-05T11:16:56.667Z,20.60
2018-09-05T11:19:24.849Z,18.47
2018-09-05T11:21:53.281Z,20.53
2018-09-05T11:24:21.381Z,19.57
2018-09-05T11:26:49.468Z,25.87
2018-09-05T11:29:17.759Z,19.67
2018-09-05T11:31:45.920Z,19.90
2018-09-05T11:34:14.004Z,20.40
2018-09-05T11:36:42.084Z,20.27
2018-09-05T11:39:12.025Z,18.37
2018-09-05T11:41:40.141Z,17.80
2018-09-05T11:44:08.323Z,18.40
2018-09-05T11:46:37.257Z,19.40
2018-09-05T11:49:05.945Z,18.20
2018-09-05T11:51:34.052Z,19.83
2018-09-05T11:54:02.098Z,19.20
2018-09-05T11:56:30.213Z,20.50
2018-09-05T11:58:58.357Z,25.30
2018-09-05T12:01:26.737Z,20.47
2018-09-05T12:03:54.826Z,19.27
2018-09-05T12:06:23.272Z,20.37
2018-09-05T12:08:51.449Z,20.60
2018-09-05T12:11:19.585Z,20.13
2018-09-05T12:13:47.685Z,20.73
2018-09-05T12:16:15.786Z,19.10
2018-09-05T12:18:44.008Z,19.20
2018-09-05T12:21:12.379Z,20.10
2018-09-05T12:23:40.638Z,19.23
2018-09-05T12:26:09.287Z,18.20
2018-09-05T12:28:37.917Z,18.20
2018-09-05T12:31:06.050Z,18.67
2018-09-05T12:33:34.241Z,19.10
2018-09-05T12:36:02.369Z,18.83
2018-09-05T12:38:30.818Z,18.40
2018-09-05T12:40:58.965Z,18.97
2018-09-05T12:43:27.061Z,17.03
2018-09-05T12:45:55.139Z,16.50
2018-09-05T12:48:23.721Z,17.30
2018-09-05T12:50:52.514Z,18.73
2018-09-05T12:53:20.589Z,16.00
2018-09-05T12:55:48.793Z,16.50
2018-09-05T12:58:16.873Z,15.87
2018-09-05T13:00:45.060Z,17.10
2018-09-05T13:03:13.169Z,16.40
2018-09-05T13:05:41.379Z,16.23
2018-09-05T13:08:09.596Z,17.07
2018-09-05T13:10:37.718Z,15.50
2018-09-05T13:13:06.136Z,17.67
2018-09-05T13:15:34.329Z,17.03
2018-09-05T13:18:02.464Z,16.83
2018-09-05T13:20:30.552Z,16.57
2018-09-05T13:22:58.642Z,17.37
2018-09-05T13:25:26.815Z,16.60
2018-09-05T13:27:54.864Z,17.00
2018-09-05T13:30:22.978Z,17.47
2018-09-05T13:32:51.067Z,16.77
2018-09-05T13:35:19.274Z,17.50
2018-09-05T13:37:47.490Z,18.10
2018-09-05T13:40:15.870Z,16.20
2018-09-05T13:42:43.945Z,17.40
2018-09-05T13:45:12.153Z,15.40
2018-09-05T13:47:40.377Z,15.10
2018-09-05T13:50:08.521Z,16.20
2018-09-05T13:52:36.701Z,16.40
2018-09-05T13:55:05.213Z,15.63
2018-09-05T13:57:33.332Z,14.53
2018-09-05T14:00:01.532Z,15.83
2018-09-05T14:02:29.609Z,16.20
2018-09-05T14:04:57.804Z,15.13
2018-09-05T14:07:26.013Z,13.73
2018-09-05T14:09:54.161Z,13.53
2018-09-05T14:12:22.312Z,13.50
2018-09-05T14:14:50.389Z,13.43
2018-09-05T14:17:18.588Z,13.80
2018-09-05T14:19:46.711Z,12.57
2018-09-05T14:22:14.822Z,14.30
2018-09-05T14:24:42.918Z,17.10
2018-09-05T14:27:11.113Z,15.67
2018-09-05T14:29:39.200Z,15.23
2018-09-05T14:32:07.288Z,15.30
2018-09-05T14:34:35.474Z,15.10
2018-09-05T14:37:03.868Z,15.90
2018-09-05T14:39:32.045Z,15.80
2018-09-05T14:42:00.152Z,16.53
2018-09-05T14:44:28.241Z,14.77
2018-09-05T14:46:56.481Z,13.57
2018-09-05T14:49:24.794Z,13.33
2018-09-05T14:51:52.877Z,11.90
2018-09-05T14:54:21.126Z,12.70
2018-09-05T14:56:49.530Z,13.20
2018-09-05T14:59:17.923Z,13.40
2018-09-05T15:01:46.226Z,13.50
2018-09-05T15:04:14.458Z,12.33
2018-09-05T15:06:42.537Z,14.60
2018-09-05T15:09:12.549Z,12.60
2018-09-05T15:11:40.944Z,13.10
2018-09-05T15:14:10.129Z,13.27
2018-09-05T15:16:38.283Z,14.13
2018-09-05T15:19:06.564Z,13.67
2018-09-05T15:21:34.862Z,13.10
2018-09-05T15:24:02.953Z,13.70
2018-09-05T15:26:31.017Z,12.43
2018-09-05T15:28:59.155Z,13.70
2018-09-05T15:31:27.236Z,13.10
2018-09-05T15:33:55.512Z,12.97
2018-09-05T15:36:23.577Z,12.27
2018-09-05T15:38:51.706Z,13.03
2018-09-05T15:41:20.145Z,13.13
2018-09-05T15:43:48.322Z,13.37
2018-09-05T15:46:18.135Z,14.07
2018-09-05T15:48:46.292Z,12.07
2018-09-05T15:51:14.400Z,13.17
2018-09-05T15:53:42.472Z,13.87
2018-09-05T15:56:10.564Z,14.40
2018-09-05T15:58:38.976Z,14.27
2018-09-05T16:01:07.079Z,13.60
2018-09-05T16:03:35.206Z,12.77
2018-09-05T16:06:03.484Z,13.73
2018-09-05T16:08:31.560Z,14.00
2018-09-05T16:10:59.658Z,13.47
2018-09-05T16:13:27.734Z,12.60
2018-09-05T16:15:56.004Z,14.27
2018-09-05T16:18:24.097Z,13.50
2018-09-05T16:20:52.269Z,13.20
2018-09-05T16:23:20.347Z,13.67
2018-09-05T16:25:48.517Z,13.50
2018-09-05T16:28:16.677Z,13.77
2018-09-05T16:30:44.985Z,14.53
2018-09-05T16:33:13.409Z,13.60
2018-09-05T16:35:41.641Z,13.93
2018-09-05T16:38:09.884Z,13.13
2018-09-05T16:40:37.965Z,13.30
2018-09-05T16:43:06.504Z,14.37
2018-09-05T16:45:34.598Z,13.67
2018-09-05T16:48:02.750Z,14.97
2018-09-05T16:50:30.893Z,15.00
2018-09-05T16:52:59.935Z,13.90
2018-09-05T16:55:28.176Z,13.97
2018-09-05T16:57:56.297Z,13.90
2018-09-05T17:00:24.481Z,13.83
2018-09-05T17:02:52.564Z,14.50
2018-09-05T17:05:20.753Z,13.50
2018-09-05T17:07:49.014Z,13.97
2018-09-05T17:10:17.106Z,13.93
2018-09-05T17:12:45.312Z,13.93
2018-09-05T17:15:13.491Z,14.53
2018-09-05T17:17:41.597Z,15.37
2018-09-05T17:20:10.598Z,14.87
2018-09-05T17:22:38.864Z,14.90
2018-09-05T17:25:07.165Z,14.67
2018-09-05T17:27:35.269Z,15.00
2018-09-05T17:30:03.391Z,16.47
2018-09-05T17:32:31.621Z,15.40
2018-09-05T17:34:59.864Z,19.03
2018-09-05T17:37:28.308Z,16.00
2018-09-05T17:39:56.411Z,18.30
2018-09-05T17:42:24.553Z,16.23
2018-09-05T17:44:52.742Z,17.87
2018-09-05T17:47:20.947Z,18.27
2018-09-05T17:49:49.150Z,17.60
2018-09-05T17:52:17.328Z,18.67
2018-09-05T17:54:45.421Z,18.43
2018-09-05T17:57:13.512Z,18.53
2018-09-05T17:59:41.675Z,17.37
2018-09-05T18:02:09.781Z,19.67
2018-09-05T18:04:38.025Z,20.27
2018-09-05T18:07:06.150Z,23.47
2018-09-05T18:09:34.225Z,23.17
2018-09-05T18:12:02.304Z,20.67
2018-09-05T18:14:30.567Z,22.37
2018-09-05T18:16:59.001Z,20.03
2018-09-05T18:19:27.397Z,18.10
2018-09-05T18:21:55.512Z,18.37
2018-09-05T18:24:23.650Z,19.23
2018-09-05T18:26:51.948Z,17.83
2018-09-05T18:29:20.320Z,17.93
2018-09-05T18:31:48.512Z,20.37
2018-09-05T18:34:16.753Z,19.73
2018-09-05T18:36:44.822Z,18.50
2018-09-05T18:39:12.951Z,19.00
2018-09-05T18:41:41.142Z,18.87
2018-09-05T18:44:09.256Z,19.27
2018-09-05T18:46:37.352Z,19.20
2018-09-05T18:49:05.568Z,18.33
2018-09-05T18:51:34.023Z,19.27
2018-09-05T18:54:02.225Z,20.03
2018-09-05T18:56:30.444Z,20.20
2018-09-05T18:58:58.614Z,19.17
2018-09-05T19:01:27.109Z,19.20
2018-09-05T19:03:55.347Z,20.00
2018-09-05T19:06:23.470Z,20.50
2018-09-05T19:08:51.926Z,20.50
2018-09-05T19:11:20.053Z,19.33
2018-09-05T19:13:48.156Z,20.03
2018-09-05T19:16:16.280Z,19.90
2018-09-05T19:18:44.488Z,20.77
2018-09-05T19:21:12.676Z,20.53
2018-09-05T19:23:40.798Z,21.43
2018-09-05T19:26:09.008Z,20.07
2018-09-05T19:28:37.121Z,20.13
2018-09-05T19:31:05.581Z,20.50
2018-09-05T19:33:33.851Z,20.60
2018-09-05T19:36:01.952Z,21.10
2018-09-05T19:38:30.090Z,20.93
2018-09-05T19:40:58.336Z,20.43
2018-09-05T19:43:26.438Z,21.10
2018-09-05T19:45:54.644Z,21.50
2018-09-05T19:48:22.832Z,22.10
2018-09-05T19:50:51.025Z,21.73
2018-09-05T19:53:19.140Z,20.73
2018-09-05T19:55:47.298Z,22.60
2018-09-05T19:58:15.395Z,22.70
2018-09-05T20:00:43.535Z,23.57
2018-09-05T20:03:11.729Z,22.60
2018-09-05T20:05:40.098Z,22.90
2018-09-05T20:08:08.273Z,23.20
2018-09-05T20:10:36.453Z,22.93
2018-09-05T20:13:05.061Z,23.73
2018-09-05T20:15:34.212Z,22.70
2018-09-05T20:18:02.667Z,22.20
2018-09-05T20:20:30.945Z,22.83
2018-09-05T20:22:59.469Z,22.07
2018-09-05T20:25:27.639Z,22.40
2018-09-05T20:27:55.773Z,24.10
2018-09-05T20:30:24.031Z,23.67
2018-09-05T20:32:52.769Z,26.00
2018-09-05T20:35:21.149Z,26.17
2018-09-05T20:37:49.275Z,26.23
2018-09-05T20:40:17.508Z,24.30
2018-09-05T20:42:45.650Z,26.67
2018-09-05T20:45:13.828Z,27.33
2018-09-05T20:47:41.992Z,28.77
2018-09-05T20:50:10.181Z,28.47
2018-09-05T20:52:38.378Z,25.70
2018-09-05T20:55:06.612Z,26.73
2018-09-05T20:57:34.772Z,23.90
2018-09-05T21:00:03.007Z,25.50
2018-09-05T21:02:31.172Z,26.07
2018-09-05T21:04:59.431Z,26.37
2018-09-05T21:07:27.872Z,25.20
2018-09-05T21:09:56.047Z,23.33
2018-09-05T21:12:24.165Z,22.60
2018-09-05T21:14:52.348Z,23.00
2018-09-05T21:17:20.547Z,22.80
2018-09-05T21:19:48.650Z,21.97
2018-09-05T21:22:16.751Z,24.03
2018-09-05T21:24:45.448Z,23.93
2018-09-05T21:27:13.622Z,24.03
2018-09-05T21:29:41.888Z,24.73
2018-09-05T21:32:09.960Z,23.77
2018-09-05T21:34:38.088Z,24.07
2018-09-05T21:37:06.578Z,24.53
2018-09-05T21:39:34.670Z,25.50
2018-09-05T21:42:02.809Z,25.10
2018-09-05T21:44:30.884Z,23.63
2018-09-05T21:46:59.074Z,25.53
2018-09-05T21:49:27.184Z,25.53
2018-09-05T21:51:55.489Z,23.53
2018-09-05T21:54:23.584Z,23.47
2018-09-05T21:56:51.777Z,25.30
2018-09-05T21:59:19.851Z,23.87
2018-09-05T22:01:48.026Z,23.47
2018-09-05T22:04:16.180Z,24.37
2018-09-05T22:06:44.378Z,24.23
2018-09-05T22:09:12.447Z,23.30
2018-09-05T22:11:40.679Z,22.93
2018-09-05T22:14:08.910Z,24.27
2018-09-05T22:16:37.060Z,24.53
2018-09-05T22:19:05.248Z,24.70
2018-09-05T22:21:33.323Z,24.27
2018-09-05T22:24:01.393Z,23.83
2018-09-05T22:26:29.461Z,23.37
2018-09-05T22:28:57.536Z,23.83
2018-09-05T22:31:25.821Z,24.80
2018-09-05T22:33:54.005Z,22.10
2018-09-05T22:36:22.193Z,23.50
2018-09-05T22:38:50.349Z,24.37
2018-09-05T22:41:18.456Z,24.40
2018-09-05T22:43:52.135Z,23.50
2018-09-05T22:46:25.734Z,23.00
2018-09-05T22:48:59.393Z,23.40
2018-09-05T22:51:36.842Z,23.50
2018-09-05T22:54:16.032Z,24.27
2018-09-05T22:56:55.218Z,23.80
2018-09-05T23:00:28.051Z,22.70
2018-09-05T23:03:15.722Z,22.53
2018-09-05T23:05:54.156Z,24.37
2018-09-05T23:08:27.775Z,23.20
2018-09-05T23:11:01.604Z,22.83
2018-09-05T23:13:35.168Z,23.43
2018-09-05T23:16:08.797Z,23.67
2018-09-05T23:18:43.334Z,23.70
2018-09-05T23:21:14.771Z,25.00
2018-09-05T23:23:48.434Z,22.80
2018-09-05T23:26:16.602Z,24.20
2018-09-05T23:28:44.681Z,25.23
2018-09-05T23:31:12.851Z,23.00
2018-09-05T23:33:41.010Z,24.60
2018-09-05T23:36:09.197Z,24.53
2018-09-05T23:38:37.286Z,22.70
2018-09-05T23:41:05.418Z,24.63
2018-09-05T23:43:33.965Z,23.80
2018-09-05T23:46:02.099Z,23.70
2018-09-05T23:48:30.270Z,24.00
2018-09-05T23:50:58.706Z,24.23
2018-09-05T23:53:26.861Z,22.97
2018-09-05T23:55:55.096Z,24.30
2018-09-05T23:58:23.842Z,23.93
